メインページ
METAR-TAF:

METAR-TAF

空港 :

ホッラマーバード, イラン

緯度: 33-26-11N, 経度: 048-17-09E, 海抜: 1155m

現時点の気象観測

当レポートは32分前の09:00(UTC)に作成
西の風 6kt
気温 36°C
湿度 12%
気圧 1005 hPa
視程: 9000m

METAR: OICK 230900Z 27006KT 9000 NSC 36/02 Q1005

時間: 14:02 (09:32 UTC)


TAF: 見つかりません

4,000以上の空港の気象観測と天気予報(METAR報とTAF報)

利用可能な観測所は地図上に黄色い丸と赤い丸で示す。

丸の上にカーソルを重ねると観測所名を参照できる。

次にクリックすると気象観測と天気予報を参照できる。

マップの切り替え:黒色「×」印の緑ボタンをクリックして拡大、「-」印の緑ボタンをクリックして縮小、緑色の三角印をクリックして隣りの地図に切り替え


METAR-TAF: